Terminal Aerodrome Forecast
Issued by NWS Wilmington, OH

Current Version | Previous Version | Text Only | Print | Product List | Glossary Off
Versions: 1 2 3 4 5 6 7 8 9 10 11 12 13 14 15 16 17 18 19 20 21 22 23 24 25 26 27 28 29 30 31 32 33 34

000
FTUS41 KILN 262100 AAC
TAFCVG
TAF AMD
KCVG 262142Z 2622/2724 21012G20KT P6SM VCTS BKN040CB
      TEMPO 2622/2623 3SM -TSRA BKN035CB
     FM270000 20011KT P6SM SCT040 BKN250
     FM270900 20007KT 5SM BR SCT010
     FM271300 22009KT P6SM FEW030
     FM271900 23011KT P6SM SCT050=

USA.gov is the U.S. government's official web portal to all federal, state and local government web resources and services.